Time;durP1;ratioP1;P1;durP2;ratioP2;P2;SDS_P1;SDS_P2;PMS_P1;PMS_P2;Temp;Humidity;BMP_temperature;BMP_pressure;BME280_temperature;BME280_humidity;BME280_pressure;Samples;Min_cycle;Max_cycle;Signal;HPM_P1;HPM_P2
2022/03/18 00:00:40;;;;;;;11.23;6.28;;;;;;;4.47;68.73;102496.25;5047971;28;20048;-50
2022/03/18 00:03:08;;;;;;;10.98;6.47;;;;;;;4.48;68.57;102500.69;5052123;28;20053;-54
2022/03/18 00:05:36;;;;;;;9.10;6.28;;;;;;;4.40;69.00;102492.66;5043272;28;20063;-50
2022/03/18 00:08:04;;;;;;;9.93;5.38;;;;;;;4.39;68.99;102495.63;5050561;28;20418;-50
2022/03/18 00:10:33;;;;;;;12.25;6.25;;;;;;;4.33;69.25;102500.16;5051564;28;20425;-52
2022/03/18 00:13:01;;;;;;;11.88;6.15;;;;;;;4.33;69.28;102500.16;5034165;28;20057;-50
2022/03/18 00:15:29;;;;;;;8.38;5.53;;;;;;;4.32;69.19;102503.13;5046390;28;20053;-51
2022/03/18 00:17:57;;;;;;;10.60;5.72;;;;;;;4.27;68.94;102507.41;5055791;28;20053;-56
2022/03/18 00:20:25;;;;;;;7.05;5.25;;;;;;;4.25;69.45;102509.53;5047425;28;20053;-51
2022/03/18 00:22:53;;;;;;;9.85;6.28;;;;;;;4.22;69.44;102506.38;5054601;28;20049;-51
2022/03/18 00:25:21;;;;;;;12.88;5.63;;;;;;;4.22;69.36;102509.13;5055357;28;20052;-52
2022/03/18 00:27:48;;;;;;;10.20;6.25;;;;;;;4.19;69.08;102507.66;5055695;28;20072;-50
2022/03/18 00:30:19;;;;;;;10.73;6.40;;;;;;;4.16;69.45;102510.88;5055157;28;20052;-49
2022/03/18 00:32:49;;;;;;;11.45;7.47;;;;;;;4.14;69.70;102506.66;5055803;28;20053;-50
2022/03/18 00:35:16;;;;;;;8.85;6.40;;;;;;;4.10;69.60;102508.16;5054071;28;20056;-52
2022/03/18 00:37:44;;;;;;;10.52;6.55;;;;;;;4.07;69.55;102510.28;5054780;28;20501;-54
2022/03/18 00:40:11;;;;;;;10.57;6.32;;;;;;;4.11;69.22;102509.84;5051046;28;20052;-49
2022/03/18 00:42:39;;;;;;;10.93;6.32;;;;;;;4.10;69.68;102519.19;5054321;28;20059;-54
2022/03/18 00:45:07;;;;;;;12.55;6.47;;;;;;;4.05;69.70;102517.06;5054988;28;20414;-49
2022/03/18 00:53:08;;;;;;;13.18;6.78;;;;;;;4.02;69.58;102521.13;5056727;28;20056;-55
2022/03/18 00:55:36;;;;;;;13.05;7.10;;;;;;;4.02;69.57;102510.09;5055074;28;20067;-54
2022/03/18 00:58:03;;;;;;;13.45;8.15;;;;;;;4.00;69.87;102514.16;5052315;28;20063;-52
2022/03/18 01:00:30;;;;;;;13.65;8.63;;;;;;;4.00;70.05;102520.50;5054536;28;20048;-53
2022/03/18 01:02:59;;;;;;;9.68;7.18;;;;;;;4.01;69.63;102515.81;5055087;28;20072;-50
2022/03/18 01:05:27;;;;;;;9.52;6.63;;;;;;;3.99;69.68;102517.94;5054401;28;20049;-53
2022/03/18 01:07:55;;;;;;;13.07;8.35;;;;;;;3.96;70.14;102518.41;5046663;28;20049;-52
2022/03/18 01:10:22;;;;;;;9.25;6.90;;;;;;;3.92;69.98;102520.75;5054098;28;20421;-51
2022/03/18 01:12:50;;;;;;;10.43;7.38;;;;;;;3.92;70.44;102518.00;5044774;28;20061;-52
2022/03/18 01:15:17;;;;;;;11.07;7.55;;;;;;;3.89;70.35;102521.19;5051823;28;20057;-52
2022/03/18 01:17:45;;;;;;;11.13;7.65;;;;;;;3.87;70.10;102523.31;5054493;28;20049;-54
2022/03/18 01:20:14;;;;;;;13.18;7.25;;;;;;;3.89;70.10;102532.22;5043467;28;20064;-50
2022/03/18 01:22:41;;;;;;;9.45;6.63;;;;;;;3.87;70.41;102528.84;5037986;28;20060;-50
2022/03/18 01:25:10;;;;;;;9.13;6.82;;;;;;;3.86;70.10;102530.75;5054532;28;20060;-54
2022/03/18 01:27:37;;;;;;;10.18;6.97;;;;;;;3.87;70.52;102528.84;5050746;28;20054;-49
2022/03/18 01:30:05;;;;;;;9.77;7.22;;;;;;;3.87;70.44;102531.59;5053880;28;20055;-51
2022/03/18 01:32:33;;;;;;;10.70;7.00;;;;;;;3.86;69.80;102529.88;5054369;28;20056;-51
2022/03/18 01:35:01;;;;;;;12.35;7.03;;;;;;;3.83;69.96;102527.59;5054432;28;20055;-50
2022/03/18 01:37:30;;;;;;;11.05;7.43;;;;;;;3.82;69.54;102524.00;5053353;28;20053;-51
2022/03/18 01:39:57;;;;;;;12.50;7.05;;;;;;;3.78;69.59;102527.38;5048858;28;20041;-51
2022/03/18 01:42:28;;;;;;;13.32;8.93;;;;;;;3.78;69.59;102538.41;5053378;28;20479;-52
2022/03/18 01:44:55;;;;;;;13.75;9.63;;;;;;;3.75;69.50;102538.84;5054356;28;20055;-52
2022/03/18 01:47:22;;;;;;;13.35;8.60;;;;;;;3.74;69.86;102531.63;5054173;28;20535;-52
2022/03/18 01:49:50;;;;;;;16.33;10.68;;;;;;;3.73;70.11;102544.56;5054170;28;20064;-50
2022/03/18 01:52:17;;;;;;;14.02;8.95;;;;;;;3.68;70.28;102549.91;5035515;28;20385;-54
2022/03/18 01:54:47;;;;;;;15.30;9.35;;;;;;;3.64;70.27;102543.97;5052400;28;20049;-50
2022/03/18 01:57:18;;;;;;;10.80;7.88;;;;;;;3.66;69.99;102546.53;5053878;28;20427;-53
2022/03/18 01:59:48;;;;;;;14.73;9.63;;;;;;;3.68;70.38;102549.91;5048907;28;20053;-52
2022/03/18 02:02:16;;;;;;;14.55;10.25;;;;;;;3.66;69.63;102547.34;5053811;28;20060;-55
2022/03/18 02:04:44;;;;;;;14.88;9.20;;;;;;;3.64;70.28;102559.66;5053642;28;20497;-52
2022/03/18 02:07:13;;;;;;;11.80;7.95;;;;;;;3.61;69.95;102566.47;5044164;28;20053;-51
2022/03/18 02:09:40;;;;;;;15.73;8.73;;;;;;;3.57;70.19;102565.19;5052881;28;20045;-51
2022/03/18 02:12:13;;;;;;;14.15;9.20;;;;;;;3.57;70.00;102567.09;5049807;28;20054;-52
2022/03/18 02:14:42;;;;;;;13.10;9.35;;;;;;;3.54;70.00;102571.13;5045082;28;20486;-50
2022/03/18 02:17:11;;;;;;;17.80;10.88;;;;;;;3.55;70.25;102581.09;5053515;28;20056;-51
2022/03/18 02:19:40;;;;;;;21.15;11.65;;;;;;;3.51;70.03;102579.84;5048377;28;20045;-51
2022/03/18 02:22:11;;;;;;;14.90;11.02;;;;;;;3.45;70.13;102584.28;5033832;28;20052;-54
2022/03/18 02:24:40;;;;;;;17.23;11.50;;;;;;;3.46;69.80;102585.13;5041707;28;20050;-51
2022/03/18 02:27:08;;;;;;;17.90;11.43;;;;;;;3.44;69.77;102587.25;5046256;28;20056;-50
2022/03/18 02:29:36;;;;;;;17.05;10.13;;;;;;;3.43;70.22;102585.56;5053012;28;20453;-53
2022/03/18 02:32:05;;;;;;;15.55;9.32;;;;;;;3.39;69.59;102584.31;5050174;28;20112;-50
2022/03/18 02:34:33;;;;;;;15.73;8.67;;;;;;;3.38;69.48;102588.09;5046218;28;20049;-50
2022/03/18 02:37:00;;;;;;;12.68;8.32;;;;;;;3.33;69.15;102590.66;5052545;28;20061;-51
2022/03/18 02:39:28;;;;;;;14.10;8.60;;;;;;;3.27;69.66;102592.38;5050753;28;20057;-49
2022/03/18 02:41:56;;;;;;;14.25;8.43;;;;;;;3.27;70.25;102602.53;5053167;28;20056;-52
2022/03/18 02:44:24;;;;;;;11.57;8.10;;;;;;;3.21;70.16;102602.34;5053040;28;20053;-52
2022/03/18 02:46:52;;;;;;;12.52;8.88;;;;;;;3.18;70.17;102610.16;5053053;28;20163;-51
2022/03/18 02:49:20;;;;;;;13.25;8.38;;;;;;;3.18;70.20;102613.75;5052700;28;20520;-51
2022/03/18 02:51:48;;;;;;;12.98;7.57;;;;;;;3.16;70.67;102612.28;5046149;28;20049;-52
2022/03/18 02:54:17;;;;;;;10.82;8.00;;;;;;;3.16;70.58;102623.31;5043893;28;20053;-52
2022/03/18 02:56:45;;;;;;;15.77;8.00;;;;;;;3.15;70.20;102619.72;5050318;28;20057;-54
2022/03/18 02:59:16;;;;;;;12.98;7.68;;;;;;;3.15;70.18;102625.22;5052619;28;20052;-54
2022/03/18 03:01:43;;;;;;;12.05;8.45;;;;;;;3.11;70.38;102626.69;5038664;28;20045;-55
2022/03/18 03:04:11;;;;;;;12.65;7.00;;;;;;;3.08;70.19;102620.75;5032818;28;20478;-53
2022/03/18 03:09:23;;;;;;;13.25;7.40;;;;;;;2.97;70.26;102633.25;5040427;28;20489;-53
2022/03/18 03:11:51;;;;;;;11.35;7.90;;;;;;;2.96;70.16;102635.16;5052094;28;20041;-53
2022/03/18 03:14:22;;;;;;;14.07;8.07;;;;;;;2.96;70.98;102645.31;5052623;28;20053;-51
2022/03/18 03:16:49;;;;;;;11.57;7.53;;;;;;;2.94;71.20;102647.41;5036099;28;20478;-52
2022/03/18 03:19:17;;;;;;;11.77;7.38;;;;;;;2.94;70.87;102655.69;5033538;28;20064;-51
2022/03/18 03:21:44;;;;;;;13.52;7.60;;;;;;;2.96;70.77;102661.81;5051317;28;20386;-50
2022/03/18 03:24:11;;;;;;;12.48;7.60;;;;;;;2.92;71.16;102655.91;5052028;28;20049;-52
2022/03/18 03:26:38;;;;;;;10.10;7.22;;;;;;;2.90;70.50;102660.78;5049958;28;20068;-50
2022/03/18 03:29:06;;;;;;;14.90;7.57;;;;;;;2.91;70.86;102664.38;5052202;28;20075;-49
2022/03/18 03:31:34;;;;;;;8.63;6.53;;;;;;;2.89;71.32;102667.31;5051981;28;20052;-53
2022/03/18 03:34:02;;;;;;;13.35;7.65;;;;;;;2.91;70.44;102678.13;5052462;28;20057;-51
2022/03/18 03:36:29;;;;;;;10.85;6.68;;;;;;;2.88;70.83;102679.41;5051857;28;20076;-54
2022/03/18 03:38:57;;;;;;;10.00;6.90;;;;;;;2.88;70.30;102675.78;5052131;28;20151;-50
2022/03/18 03:41:24;;;;;;;13.38;7.43;;;;;;;2.81;70.78;102687.66;5051047;28;20057;-52
2022/03/18 03:43:51;;;;;;;12.32;7.30;;;;;;;2.79;70.63;102680.63;5052010;28;20066;-52
2022/03/18 03:46:19;;;;;;;10.77;7.43;;;;;;;2.78;70.49;102684.44;5052159;28;20053;-54
2022/03/18 03:48:47;;;;;;;11.93;7.13;;;;;;;2.73;70.75;102685.09;5052123;28;20052;-53
2022/03/18 03:51:15;;;;;;;9.85;6.88;;;;;;;2.71;70.95;102689.94;5052089;28;20124;-50
2022/03/18 03:53:42;;;;;;;11.35;6.72;;;;;;;2.69;70.43;102681.06;5051797;28;20393;-52
2022/03/18 03:56:19;;;;;;;11.07;7.75;;;;;;;2.69;70.55;102678.28;5051003;28;20052;-50
2022/03/18 03:58:47;;;;;;;9.65;6.78;;;;;;;2.66;71.10;102683.34;5049625;28;20053;-53
2022/03/18 04:01:14;;;;;;;10.68;7.47;;;;;;;2.65;70.92;102682.53;5051980;28;20059;-52
2022/03/18 04:03:41;;;;;;;14.25;8.43;;;;;;;2.65;71.13;102688.03;5051512;28;20474;-52
2022/03/18 04:06:10;;;;;;;12.88;7.00;;;;;;;2.64;71.14;102694.56;5052006;28;20504;-52
2022/03/18 04:08:37;;;;;;;9.73;7.25;;;;;;;2.65;70.78;102688.03;5051426;28;20056;-50
2022/03/18 04:11:05;;;;;;;12.25;7.65;;;;;;;2.65;71.12;102693.53;5050904;28;20049;-51
2022/03/18 04:13:32;;;;;;;11.80;8.13;;;;;;;2.66;70.82;102689.69;5051556;28;20052;-53
2022/03/18 04:16:00;;;;;;;11.98;7.78;;;;;;;2.62;71.32;102692.03;5051292;28;20060;-52
2022/03/18 04:18:27;;;;;;;11.70;7.22;;;;;;;2.58;71.08;102688.00;5051689;28;20059;-51
2022/03/18 04:20:54;;;;;;;13.00;8.05;;;;;;;2.58;71.40;102689.88;5051239;28;20049;-52
2022/03/18 04:23:23;;;;;;;10.77;7.90;;;;;;;2.60;71.37;102687.78;5051181;28;20052;-49
2022/03/18 04:25:51;;;;;;;11.68;7.78;;;;;;;2.59;71.24;102689.69;5050505;28;20441;-50
2022/03/18 04:28:18;;;;;;;11.98;8.18;;;;;;;2.57;70.96;102690.94;5051746;28;20048;-54
2022/03/18 04:30:46;;;;;;;12.65;7.50;;;;;;;2.57;71.02;102702.78;5051425;28;20045;-54
2022/03/18 04:33:13;;;;;;;9.85;7.35;;;;;;;2.52;70.99;102699.81;5051059;28;20049;-51
2022/03/18 04:35:40;;;;;;;13.60;7.65;;;;;;;2.50;71.19;102706.56;5050918;28;20060;-52
2022/03/18 04:38:08;;;;;;;9.48;6.82;;;;;;;2.47;71.67;102704.25;5051232;28;20076;-52
2022/03/18 04:40:51;;;;;;;13.48;8.27;;;;;;;2.44;71.46;102709.09;5050734;28;20427;-51
2022/03/18 04:43:20;;;;;;;12.07;7.95;;;;;;;2.41;70.94;102709.50;5049658;28;20076;-53
2022/03/18 04:45:47;;;;;;;11.32;8.00;;;;;;;2.37;71.13;102705.47;5051106;28;20060;-54
2022/03/18 04:48:14;;;;;;;10.07;6.93;;;;;;;2.35;71.72;102710.34;5051404;28;20504;-53
2022/03/18 04:50:42;;;;;;;9.35;7.22;;;;;;;2.33;71.30;102708.81;5051083;28;20057;-50
2022/03/18 04:53:09;;;;;;;9.35;6.32;;;;;;;2.29;71.25;102708.41;5050688;28;20395;-50
2022/03/18 04:55:44;;;;;;;9.23;6.40;;;;;;;2.27;71.07;102718.75;5057623;28;20386;-50
2022/03/18 04:58:11;;;;;;;9.88;6.97;;;;;;;2.21;71.33;102703.91;5051544;28;20057;-52
2022/03/18 05:00:39;;;;;;;12.55;7.63;;;;;;;2.18;71.09;102704.34;5054958;28;20068;-50
2022/03/18 05:03:08;;;;;;;12.02;7.38;;;;;;;2.13;70.36;102716.97;5054847;28;20045;-52
2022/03/18 05:05:35;;;;;;;12.88;7.32;;;;;;;2.10;70.56;102722.88;5055055;28;20059;-52
2022/03/18 05:08:02;;;;;;;11.05;7.38;;;;;;;2.05;70.84;102726.22;5054564;28;20048;-51
2022/03/18 05:10:30;;;;;;;10.63;7.55;;;;;;;2.00;70.84;102724.09;5053316;28;20053;-50
2022/03/18 05:12:57;;;;;;;11.98;7.72;;;;;;;2.00;70.89;102732.34;5053101;28;20049;-54
2022/03/18 05:15:26;;;;;;;12.07;7.18;;;;;;;1.95;71.17;102732.09;5054973;28;20049;-51
2022/03/18 05:17:55;;;;;;;13.13;7.72;;;;;;;1.82;70.76;102727.34;5054868;28;20048;-53
2022/03/18 05:20:22;;;;;;;13.82;7.70;;;;;;;1.83;71.37;102744.69;5054935;28;20064;-55
2022/03/18 05:22:51;;;;;;;15.45;9.05;;;;;;;1.81;70.96;102749.53;5054503;28;20053;-54
2022/03/18 05:25:18;;;;;;;11.63;8.10;;;;;;;1.78;71.06;102755.41;5054483;28;20053;-52
2022/03/18 05:27:46;;;;;;;14.77;9.13;;;;;;;1.74;71.21;102754.13;5054344;28;20072;-51
2022/03/18 05:30:15;;;;;;;12.45;8.40;;;;;;;1.75;71.71;102753.91;5054785;28;20049;-52
2022/03/18 05:33:11;;;;;;;16.23;8.20;;;;;;;1.72;71.67;102754.34;5053694;28;20516;-54
2022/03/18 05:35:39;;;;;;;15.48;8.52;;;;;;;1.71;72.11;102760.03;5030035;28;20498;-51
2022/03/18 05:38:06;;;;;;;13.63;7.57;;;;;;;1.72;72.21;102772.69;5042669;28;20075;-51
2022/03/18 05:40:34;;;;;;;13.23;7.80;;;;;;;1.74;72.31;102776.09;5052988;28;20060;-52
2022/03/18 05:43:01;;;;;;;9.38;7.10;;;;;;;1.76;72.16;102790.47;5053481;28;20524;-53
2022/03/18 05:45:29;;;;;;;10.98;7.72;;;;;;;1.74;72.67;102787.97;5039884;28;20057;-52
2022/03/18 05:47:56;;;;;;;13.70;7.22;;;;;;;1.75;72.13;102775.06;5049451;28;20421;-52
2022/03/18 05:50:26;;;;;;;10.55;7.30;;;;;;;1.74;72.35;102789.84;5045393;28;20375;-54
2022/03/18 05:52:53;;;;;;;12.57;7.50;;;;;;;1.73;72.53;102790.91;5049867;28;20501;-55
2022/03/18 05:55:20;;;;;;;11.23;7.78;;;;;;;1.76;72.43;102813.31;5051707;28;20045;-55
2022/03/18 05:57:47;;;;;;;13.45;8.57;;;;;;;1.75;72.53;102822.63;5047505;28;20433;-53
2022/03/18 06:00:16;;;;;;;9.38;6.75;;;;;;;1.79;72.56;102820.31;5040350;28;20486;-55
2022/03/18 06:02:45;;;;;;;10.38;6.65;;;;;;;1.74;72.25;102823.69;5034959;28;20050;-51
2022/03/18 06:05:12;;;;;;;11.73;8.23;;;;;;;1.74;72.36;102814.56;5047817;28;20072;-52
2022/03/18 06:07:41;;;;;;;12.35;7.97;;;;;;;1.74;72.15;102825.53;5053476;28;20051;-51
2022/03/18 06:12:54;;;;;;;12.88;8.00;;;;;;;1.78;71.75;102821.34;5046376;28;20064;-53
2022/03/18 06:15:21;;;;;;;14.90;9.38;;;;;;;1.78;71.47;102821.34;5047735;28;20052;-50
2022/03/18 06:17:48;;;;;;;13.95;9.10;;;;;;;1.79;71.17;102829.41;5045572;28;20049;-52
2022/03/18 06:20:16;;;;;;;12.85;8.68;;;;;;;1.83;71.80;102840.88;5050864;28;20072;-52
2022/03/18 06:22:45;;;;;;;12.18;9.32;;;;;;;1.89;71.85;102841.94;5052996;28;20049;-54
2022/03/18 06:25:12;;;;;;;19.38;9.95;;;;;;;1.96;72.37;102843.72;5049125;28;20050;-53
2022/03/18 06:27:39;;;;;;;14.27;8.52;;;;;;;2.03;71.77;102846.53;5043283;28;20052;-53
2022/03/18 06:30:07;;;;;;;15.20;9.05;;;;;;;2.12;71.89;102853.59;5053083;28;20052;-51
2022/03/18 06:32:35;;;;;;;12.80;8.77;;;;;;;2.24;71.46;102851.13;5053213;28;20064;-52
2022/03/18 06:35:02;;;;;;;13.75;9.15;;;;;;;2.40;70.53;102861.81;5048311;28;20053;-53
2022/03/18 06:37:30;;;;;;;13.43;9.52;;;;;;;2.54;70.09;102860.03;5047042;28;20486;-53
2022/03/18 06:39:58;;;;;;;11.68;8.45;;;;;;;2.89;70.02;102856.41;5041079;28;20041;-54
2022/03/18 06:42:26;;;;;;;11.02;7.50;;;;;;;3.17;68.46;102864.56;5049634;28;20045;-52
2022/03/18 06:44:53;;;;;;;14.75;8.48;;;;;;;3.58;67.14;102858.97;5039599;28;20048;-52
2022/03/18 06:47:21;;;;;;;10.48;7.55;;;;;;;4.10;66.15;102855.66;5048760;28;20442;-52
2022/03/18 06:49:48;;;;;;;12.68;7.75;;;;;;;4.64;64.24;102851.75;5038638;28;20045;-55
2022/03/18 06:52:15;;;;;;;13.85;8.15;;;;;;;5.38;61.94;102857.84;5044542;28;20489;-52
2022/03/18 06:54:42;;;;;;;9.18;6.70;;;;;;;6.08;61.01;102857.81;5039554;28;20051;-52
2022/03/18 06:57:12;;;;;;;7.80;6.63;;;;;;;6.88;58.90;102873.66;5048158;28;20525;-52
2022/03/18 06:59:40;;;;;;;9.85;6.15;;;;;;;7.68;57.23;102862.38;5049214;28;20060;-51
2022/03/18 07:02:07;;;;;;;9.05;6.82;;;;;;;8.49;55.27;102856.38;5050431;28;20374;-52
2022/03/18 07:04:35;;;;;;;8.63;6.97;;;;;;;9.36;53.34;102855.47;5040229;28;20513;-53
2022/03/18 07:07:03;;;;;;;11.18;7.00;;;;;;;10.25;51.34;102857.66;5041670;28;20052;-51
2022/03/18 07:09:30;;;;;;;10.88;6.97;;;;;;;11.15;49.04;102865.97;5049945;28;20064;-55
2022/03/18 07:11:57;;;;;;;7.85;6.40;;;;;;;12.07;47.03;102866.97;5045984;28;20072;-53
2022/03/18 07:14:26;;;;;;;9.02;6.50;;;;;;;13.01;44.56;102856.16;5037660;28;20049;-55
2022/03/18 07:19:38;;;;;;;9.63;6.60;;;;;;;14.60;40.18;102867.66;5056972;28;20060;-55
2022/03/18 07:22:06;;;;;;;8.40;6.05;;;;;;;15.28;38.59;102880.38;5049993;28;20048;-54
2022/03/18 07:24:33;;;;;;;6.53;5.82;;;;;;;15.81;37.16;102875.91;5048215;28;20060;-57
2022/03/18 07:27:01;;;;;;;6.35;5.32;;;;;;;16.52;35.77;102867.97;5049839;28;20048;-53
2022/03/18 07:29:30;;;;;;;7.80;5.30;;;;;;;17.31;34.22;102861.22;5043699;28;20044;-56
2022/03/18 07:31:57;;;;;;;10.07;6.40;;;;;;;17.77;33.69;102861.41;5043548;28;20049;-53
2022/03/18 07:34:24;;;;;;;6.93;5.32;;;;;;;18.65;33.90;102855.16;5047434;28;20475;-49
2022/03/18 07:36:52;;;;;;;6.90;5.18;;;;;;;19.45;31.71;102865.09;5042813;28;20049;-49
2022/03/18 07:39:19;;;;;;;7.05;5.22;;;;;;;19.90;30.32;102864.38;5041590;28;20068;-49
2022/03/18 07:41:49;;;;;;;7.32;5.38;;;;;;;20.49;30.17;102861.44;5051019;28;20053;-53
2022/03/18 07:44:16;;;;;;;5.93;5.30;;;;;;;20.97;28.02;102860.72;5048011;28;20390;-55
2022/03/18 07:46:45;;;;;;;6.65;5.68;;;;;;;21.23;27.56;102862.78;5044585;28;20056;-49
2022/03/18 07:49:12;;;;;;;7.30;4.97;;;;;;;21.52;27.05;102848.03;5047604;28;20052;-52
2022/03/18 07:51:39;;;;;;;6.25;5.47;;;;;;;21.80;26.69;102848.59;5039946;28;20430;-50
2022/03/18 07:54:09;;;;;;;7.07;5.60;;;;;;;22.33;26.18;102843.72;5043243;28;20482;-54
2022/03/18 07:56:37;;;;;;;7.18;5.55;;;;;;;22.84;25.37;102843.88;5047301;28;20060;-53
2022/03/18 07:59:04;;;;;;;9.77;5.30;;;;;;;23.28;25.22;102850.19;5049458;28;20052;-54
2022/03/18 08:01:31;;;;;;;6.88;5.30;;;;;;;23.84;23.99;102845.13;5046657;28;20053;-50
2022/03/18 08:04:00;;;;;;;9.27;6.63;;;;;;;24.22;23.60;102841.25;5048200;28;20052;-57
2022/03/18 08:06:27;;;;;;;7.85;5.78;;;;;;;24.29;23.72;102830.09;5045702;28;20490;-56
2022/03/18 08:08:55;;;;;;;11.30;6.38;;;;;;;24.83;23.16;102834.84;5048896;28;20512;-51
2022/03/18 08:11:22;;;;;;;7.60;6.35;;;;;;;25.41;22.65;102831.91;5037867;28;20505;-53
2022/03/18 08:13:50;;;;;;;13.65;6.78;;;;;;;26.30;21.45;102833.72;5045873;28;20425;-55
2022/03/18 08:16:18;;;;;;;11.80;6.93;;;;;;;26.77;21.18;102837.00;5048854;28;20087;-53
2022/03/18 08:18:45;;;;;;;10.40;6.15;;;;;;;27.36;20.54;102832.34;5046854;28;21010;-53
2022/03/18 08:21:16;;;;;;;8.52;6.07;;;;;;;27.97;20.60;102840.28;5031961;28;20057;-55
2022/03/18 08:23:43;;;;;;;7.35;6.30;;;;;;;28.39;20.32;102848.06;5039285;28;20052;-53
2022/03/18 08:26:10;;;;;;;10.05;7.53;;;;;;;29.01;19.32;102847.13;5047527;28;20492;-51
2022/03/18 08:28:38;;;;;;;8.77;6.93;;;;;;;29.27;19.34;102850.03;5041400;28;20057;-53
2022/03/18 08:31:05;;;;;;;9.43;7.63;;;;;;;29.79;18.26;102847.50;5039284;28;20045;-55
2022/03/18 08:33:33;;;;;;;7.20;6.50;;;;;;;29.93;18.55;102847.69;5051342;28;20053;-51
2022/03/18 08:36:00;;;;;;;9.13;5.75;;;;;;;30.25;17.91;102849.28;5053301;28;20513;-52
2022/03/18 08:38:28;;;;;;;7.88;6.57;;;;;;;30.20;17.82;102858.25;5044441;28;20053;-53
2022/03/18 08:40:56;;;;;;;;;;;;;;;30.24;17.91;102859.97;5045669;28;20054;-52
2022/03/18 08:43:23;;;;;;;9.98;6.60;;;;;;;30.68;17.85;102856.34;5034101;28;19929;-54
2022/03/18 08:45:51;;;;;;;7.25;6.40;;;;;;;31.11;17.81;102853.84;5033840;28;20045;-53
2022/03/18 08:48:18;;;;;;;10.90;6.45;;;;;;;31.87;16.83;102866.66;5033935;28;20140;-54
2022/03/18 08:50:45;;;;;;;10.25;6.50;;;;;;;31.99;16.73;102865.50;5052164;28;20059;-52
2022/03/18 08:53:12;;;;;;;9.20;7.00;;;;;;;32.29;16.59;102862.28;5053546;28;20052;-51
2022/03/18 08:55:41;;;;;;;9.98;6.43;;;;;;;32.43;17.06;102867.28;5051756;28;20049;-54
2022/03/18 08:58:10;;;;;;;6.90;5.75;;;;;;;32.82;16.58;102869.41;5037914;28;20506;-54
2022/03/18 09:00:38;;;;;;;8.73;5.82;;;;;;;32.83;16.40;102873.94;5041010;28;20416;-53
2022/03/18 09:03:05;;;;;;;7.72;4.30;;;;;;;33.48;15.40;102883.41;5049009;28;20052;-54
2022/03/18 09:05:33;;;;;;;6.13;3.90;;;;;;;33.62;14.82;102896.19;5052329;28;20045;-55
2022/03/18 09:08:00;;;;;;;5.25;4.00;;;;;;;33.82;14.84;102896.56;5040252;28;20159;-54
2022/03/18 09:10:28;;;;;;;6.85;4.90;;;;;;;34.19;14.58;102896.00;5047626;28;20060;-54
2022/03/18 09:12:59;;;;;;;6.25;4.30;;;;;;;34.29;14.22;102898.03;5044800;28;20053;-53
2022/03/18 09:15:26;;;;;;;7.30;4.88;;;;;;;34.72;14.42;102897.75;5048559;28;20050;-54
2022/03/18 09:17:54;;;;;;;6.57;4.77;;;;;;;34.95;14.24;102902.13;5045756;28;20068;-55
2022/03/18 09:20:21;;;;;;;7.03;4.17;;;;;;;35.39;13.27;102894.72;5049601;28;20049;-51
2022/03/18 09:22:48;;;;;;;7.60;4.43;;;;;;;35.24;13.60;102913.47;5051360;28;20479;-52
2022/03/18 09:25:16;;;;;;;5.07;3.30;;;;;;;34.87;13.55;102912.13;5052275;28;20049;-51
2022/03/18 09:27:43;;;;;;;6.13;2.60;;;;;;;35.35;12.98;102905.53;5043480;28;20057;-51
2022/03/18 09:30:19;;;;;;;5.07;2.63;;;;;;;35.24;12.31;102916.38;5051683;28;20080;-50
2022/03/18 09:32:46;;;;;;;4.53;2.65;;;;;;;35.18;12.37;102924.72;5052118;28;20060;-49
2022/03/18 09:35:16;;;;;;;5.05;2.60;;;;;;;35.44;12.57;102922.41;5050102;28;20056;-51
2022/03/18 09:37:43;;;;;;;4.95;2.58;;;;;;;35.77;11.79;102924.56;5044403;28;20057;-50
2022/03/18 09:40:11;;;;;;;4.70;2.58;;;;;;;36.18;12.06;102922.81;5052339;28;20059;-54
2022/03/18 09:42:55;;;;;;;5.40;2.50;;;;;;;36.23;11.84;102930.25;5052031;28;20060;-52
2022/03/18 09:45:25;;;;;;;4.57;2.55;;;;;;;36.12;11.66;102939.03;5046953;28;20059;-51
2022/03/18 09:47:53;;;;;;;4.07;2.38;;;;;;;36.51;10.87;102941.44;5052970;28;20056;-50
2022/03/18 09:50:21;;;;;;;5.75;2.65;;;;;;;36.48;11.36;102935.72;5051043;28;20068;-49
2022/03/18 09:52:49;;;;;;;4.78;2.40;;;;;;;36.46;11.56;102944.03;5051852;28;20045;-52
2022/03/18 09:55:16;;;;;;;4.10;2.38;;;;;;;36.58;11.38;102952.97;5044633;28;20056;-55
2022/03/18 09:57:43;;;;;;;3.77;2.27;;;;;;;36.69;11.66;102943.31;5045573;28;20052;-51
2022/03/18 10:00:12;;;;;;;3.57;2.00;;;;;;;35.87;11.48;102948.91;5039354;28;20475;-50
2022/03/18 10:02:41;;;;;;;4.72;1.70;;;;;;;36.08;11.74;102949.91;5043493;28;20049;-54
2022/03/18 10:05:12;;;;;;;3.80;1.50;;;;;;;36.03;11.40;102953.25;5047147;28;20056;-54
2022/03/18 10:07:39;;;;;;;4.10;1.80;;;;;;;36.11;11.21;102949.00;5044722;28;20071;-55
2022/03/18 10:10:14;;;;;;;2.60;1.70;;;;;;;36.42;11.28;102951.97;5051651;28;20796;-52
2022/03/18 10:12:45;;;;;;;2.40;1.50;;;;;;;36.74;10.47;102952.31;5050122;28;20072;-51
2022/03/18 10:15:15;;;;;;;3.85;1.70;;;;;;;36.90;10.85;102951.66;5051952;28;20391;-52
2022/03/18 10:17:48;;;;;;;2.80;1.60;;;;;;;37.43;11.05;102951.22;5043553;28;20049;-52
2022/03/18 10:20:27;;;;;;;2.88;1.73;;;;;;;37.92;10.40;102961.06;5039195;28;20064;-53
2022/03/18 10:22:56;;;;;;;3.35;1.70;;;;;;;38.14;10.28;102952.75;5051016;28;20057;-55
2022/03/18 10:25:41;;;;;;;2.80;2.25;;;;;;;38.11;10.46;102947.00;5051480;28;20059;-53
2022/03/18 10:28:10;;;;;;;4.35;1.98;;;;;;;38.16;10.46;102950.22;5049788;28;20052;-54
2022/03/18 10:30:38;;;;;;;3.33;2.00;;;;;;;37.95;9.75;102957.28;5046471;28;20406;-51
2022/03/18 10:33:07;;;;;;;;;;;;;;;38.14;10.36;102951.94;5042926;28;20049;-55
2022/03/18 10:38:32;;;;;;;2.92;1.42;;;;;;;38.10;10.09;102960.75;5050924;28;20064;-52
2022/03/18 10:41:01;;;;;;;2.58;1.52;;;;;;;38.01;10.02;102954.69;5049916;28;20041;-52
2022/03/18 10:43:29;;;;;;;2.20;1.60;;;;;;;38.25;9.76;102958.34;5051848;28;20049;-55
2022/03/18 10:46:00;;;;;;;2.55;1.67;;;;;;;37.98;10.04;102953.47;5050820;28;20045;-54
2022/03/18 10:48:29;;;;;;;3.85;1.95;;;;;;;37.09;11.45;102953.00;5044104;28;20046;-51
2022/03/18 10:51:04;;;;;;;3.88;2.10;;;;;;;37.43;10.80;102948.31;5037771;28;20055;-50
2022/03/18 10:53:33;;;;;;;3.78;2.00;;;;;;;37.91;10.44;102949.91;5049575;28;20063;-54
2022/03/18 10:56:02;;;;;;;3.00;1.70;;;;;;;37.36;10.89;102950.09;5046193;28;20045;-52
2022/03/18 10:58:32;;;;;;;2.90;1.92;;;;;;;37.40;10.51;102949.19;5051049;28;20061;-52
2022/03/18 11:01:02;;;;;;;3.03;1.80;;;;;;;35.97;10.99;102952.91;5041003;28;20041;-55
2022/03/18 11:03:32;;;;;;;3.33;1.83;;;;;;;36.22;10.69;102957.59;5038333;28;20049;-49
2022/03/18 11:06:03;;;;;;;3.13;1.92;;;;;;;35.95;10.63;102956.25;5046019;28;20497;-54
2022/03/18 11:08:40;;;;;;;2.90;1.80;;;;;;;35.43;11.11;102965.06;5045141;28;20057;-55
2022/03/18 11:11:15;;;;;;;3.03;1.75;;;;;;;35.82;10.72;102945.63;5048556;28;20049;-57
2022/03/18 11:13:51;;;;;;;3.85;1.73;;;;;;;35.91;11.33;102960.44;5046590;28;20529;-51
2022/03/18 11:16:20;;;;;;;3.70;1.80;;;;;;;36.13;10.77;102967.66;5037893;28;20500;-55
2022/03/18 11:18:50;;;;;;;3.20;1.50;;;;;;;36.49;10.47;102967.19;5049638;28;20072;-53
2022/03/18 11:21:21;;;;;;;3.78;1.73;;;;;;;35.38;10.64;102962.63;5050618;28;20063;-53
2022/03/18 11:23:50;;;;;;;3.22;1.60;;;;;;;35.14;10.85;102958.72;5046143;28;20044;-52
2022/03/18 11:26:19;;;;;;;3.05;1.80;;;;;;;35.56;10.59;102959.56;5050702;28;20369;-53
2022/03/18 11:28:47;;;;;;;3.25;1.58;;;;;;;35.35;10.89;102963.50;5046688;28;20048;-52
2022/03/18 11:31:18;;;;;;;3.75;1.77;;;;;;;34.35;10.91;102965.75;5046539;28;20489;-54
2022/03/18 11:34:12;;;;;;;5.32;2.05;;;;;;;34.12;11.06;102965.44;5035955;28;20832;-54
2022/03/18 11:36:47;;;;;;;2.38;1.85;;;;;;;34.50;11.80;102965.69;5045124;28;20060;-50
2022/03/18 11:39:21;;;;;;;3.17;1.90;;;;;;;34.74;11.19;102970.53;5047070;28;20414;-52
2022/03/18 11:41:53;;;;;;;3.25;1.80;;;;;;;35.43;11.66;102965.06;5044193;28;20053;-55
2022/03/18 11:44:40;;;;;;;3.72;1.60;;;;;;;35.75;11.16;102964.75;5045173;28;20501;-54
2022/03/18 11:47:38;;;;;;;3.03;1.90;;;;;;;36.17;10.41;102962.63;5046054;28;20048;-54
2022/03/18 11:50:49;;;;;;;4.45;2.15;;;;;;;36.18;10.23;102957.66;5044131;28;20068;-53